sensor_id;sensor_type;location;lat;lon;timestamp;P1;durP1;ratioP1;P2;durP2;ratioP2
20621;SDS011;10470;42.670;23.354;2022-11-10T00:00:48;57.27;;;30.73;;
20621;SDS011;10470;42.670;23.354;2022-11-10T00:03:14;57.27;;;31.07;;
20621;SDS011;10470;42.670;23.354;2022-11-10T00:05:39;54.57;;;30.53;;
20621;SDS011;10470;42.670;23.354;2022-11-10T00:08:06;57.93;;;30.93;;
20621;SDS011;10470;42.670;23.354;2022-11-10T00:10:34;55.77;;;31.83;;
20621;SDS011;10470;42.670;23.354;2022-11-10T00:13:21;54.60;;;30.33;;
20621;SDS011;10470;42.670;23.354;2022-11-10T00:15:52;55.80;;;31.80;;
20621;SDS011;10470;42.670;23.354;2022-11-10T00:18:36;55.63;;;29.93;;
20621;SDS011;10470;42.670;23.354;2022-11-10T00:21:02;55.43;;;32.43;;
20621;SDS011;10470;42.670;23.354;2022-11-10T00:23:29;58.40;;;33.33;;
20621;SDS011;10470;42.670;23.354;2022-11-10T00:25:55;63.47;;;33.77;;
20621;SDS011;10470;42.670;23.354;2022-11-10T00:28:20;61.30;;;34.10;;
20621;SDS011;10470;42.670;23.354;2022-11-10T00:30:46;56.57;;;33.27;;
20621;SDS011;10470;42.670;23.354;2022-11-10T00:33:11;60.53;;;33.80;;
20621;SDS011;10470;42.670;23.354;2022-11-10T00:35:37;61.80;;;34.53;;
20621;SDS011;10470;42.670;23.354;2022-11-10T00:38:02;60.77;;;33.93;;
20621;SDS011;10470;42.670;23.354;2022-11-10T00:40:27;61.70;;;33.90;;
20621;SDS011;10470;42.670;23.354;2022-11-10T00:42:53;59.73;;;33.50;;
20621;SDS011;10470;42.670;23.354;2022-11-10T00:45:18;67.57;;;35.97;;
20621;SDS011;10470;42.670;23.354;2022-11-10T00:47:44;65.63;;;35.53;;
20621;SDS011;10470;42.670;23.354;2022-11-10T00:50:10;63.63;;;34.90;;
20621;SDS011;10470;42.670;23.354;2022-11-10T00:52:36;58.10;;;34.40;;
20621;SDS011;10470;42.670;23.354;2022-11-10T00:55:01;62.90;;;34.27;;
20621;SDS011;10470;42.670;23.354;2022-11-10T00:57:27;56.83;;;31.23;;
20621;SDS011;10470;42.670;23.354;2022-11-10T00:59:52;59.33;;;34.03;;
20621;SDS011;10470;42.670;23.354;2022-11-10T01:02:18;54.27;;;32.90;;
20621;SDS011;10470;42.670;23.354;2022-11-10T01:04:43;60.53;;;32.93;;
20621;SDS011;10470;42.670;23.354;2022-11-10T01:07:08;55.87;;;32.27;;
20621;SDS011;10470;42.670;23.354;2022-11-10T01:09:34;54.83;;;31.57;;
20621;SDS011;10470;42.670;23.354;2022-11-10T01:11:59;57.53;;;31.90;;
20621;SDS011;10470;42.670;23.354;2022-11-10T01:14:25;62.10;;;32.27;;
20621;SDS011;10470;42.670;23.354;2022-11-10T01:16:50;61.67;;;33.70;;
20621;SDS011;10470;42.670;23.354;2022-11-10T01:19:16;62.90;;;34.53;;
20621;SDS011;10470;42.670;23.354;2022-11-10T01:21:41;62.93;;;34.20;;
20621;SDS011;10470;42.670;23.354;2022-11-10T01:24:06;58.40;;;32.87;;
20621;SDS011;10470;42.670;23.354;2022-11-10T01:26:32;57.03;;;33.03;;
20621;SDS011;10470;42.670;23.354;2022-11-10T01:28:57;56.13;;;32.40;;
20621;SDS011;10470;42.670;23.354;2022-11-10T01:31:23;63.50;;;33.73;;
20621;SDS011;10470;42.670;23.354;2022-11-10T01:33:48;64.33;;;34.30;;
20621;SDS011;10470;42.670;23.354;2022-11-10T01:36:14;62.10;;;35.27;;
20621;SDS011;10470;42.670;23.354;2022-11-10T01:38:40;65.13;;;35.47;;
20621;SDS011;10470;42.670;23.354;2022-11-10T01:41:07;68.30;;;36.30;;
20621;SDS011;10470;42.670;23.354;2022-11-10T01:43:35;65.93;;;35.43;;
20621;SDS011;10470;42.670;23.354;2022-11-10T01:46:02;62.20;;;34.77;;
20621;SDS011;10470;42.670;23.354;2022-11-10T01:51:24;66.13;;;33.57;;
20621;SDS011;10470;42.670;23.354;2022-11-10T01:53:55;63.20;;;34.63;;
20621;SDS011;10470;42.670;23.354;2022-11-10T01:56:26;60.53;;;34.70;;
20621;SDS011;10470;42.670;23.354;2022-11-10T01:58:55;59.73;;;33.17;;
20621;SDS011;10470;42.670;23.354;2022-11-10T02:01:24;59.57;;;33.43;;
20621;SDS011;10470;42.670;23.354;2022-11-10T02:03:52;62.97;;;32.87;;
20621;SDS011;10470;42.670;23.354;2022-11-10T02:06:21;60.13;;;32.97;;
20621;SDS011;10470;42.670;23.354;2022-11-10T02:08:48;58.33;;;31.27;;
20621;SDS011;10470;42.670;23.354;2022-11-10T02:11:15;61.37;;;33.20;;
20621;SDS011;10470;42.670;23.354;2022-11-10T02:13:41;58.50;;;34.07;;
20621;SDS011;10470;42.670;23.354;2022-11-10T02:16:08;63.23;;;36.73;;
20621;SDS011;10470;42.670;23.354;2022-11-10T02:18:35;65.83;;;36.13;;
20621;SDS011;10470;42.670;23.354;2022-11-10T02:21:04;65.53;;;35.90;;
20621;SDS011;10470;42.670;23.354;2022-11-10T02:25:58;60.67;;;35.00;;
20621;SDS011;10470;42.670;23.354;2022-11-10T02:28:24;60.63;;;33.37;;
20621;SDS011;10470;42.670;23.354;2022-11-10T02:30:51;64.03;;;35.30;;
20621;SDS011;10470;42.670;23.354;2022-11-10T02:33:17;64.83;;;35.67;;
20621;SDS011;10470;42.670;23.354;2022-11-10T02:35:43;65.27;;;36.77;;
20621;SDS011;10470;42.670;23.354;2022-11-10T02:38:09;63.97;;;35.67;;
20621;SDS011;10470;42.670;23.354;2022-11-10T02:40:35;62.03;;;34.77;;
20621;SDS011;10470;42.670;23.354;2022-11-10T02:43:01;63.67;;;36.43;;
20621;SDS011;10470;42.670;23.354;2022-11-10T02:45:28;63.37;;;34.63;;
20621;SDS011;10470;42.670;23.354;2022-11-10T02:47:54;61.37;;;34.17;;
20621;SDS011;10470;42.670;23.354;2022-11-10T02:50:19;62.63;;;34.83;;
20621;SDS011;10470;42.670;23.354;2022-11-10T02:52:44;54.53;;;33.13;;
20621;SDS011;10470;42.670;23.354;2022-11-10T02:55:10;57.03;;;32.27;;
20621;SDS011;10470;42.670;23.354;2022-11-10T02:57:36;58.83;;;32.80;;
20621;SDS011;10470;42.670;23.354;2022-11-10T03:00:03;60.33;;;32.90;;
20621;SDS011;10470;42.670;23.354;2022-11-10T03:02:29;56.57;;;32.17;;
20621;SDS011;10470;42.670;23.354;2022-11-10T03:04:55;57.00;;;31.37;;
20621;SDS011;10470;42.670;23.354;2022-11-10T03:07:20;62.70;;;33.13;;
20621;SDS011;10470;42.670;23.354;2022-11-10T03:09:46;55.97;;;31.33;;
20621;SDS011;10470;42.670;23.354;2022-11-10T03:12:11;54.03;;;30.87;;
20621;SDS011;10470;42.670;23.354;2022-11-10T03:14:37;54.87;;;30.57;;
20621;SDS011;10470;42.670;23.354;2022-11-10T03:17:02;54.77;;;28.50;;
20621;SDS011;10470;42.670;23.354;2022-11-10T03:19:28;52.37;;;29.40;;
20621;SDS011;10470;42.670;23.354;2022-11-10T03:21:53;53.67;;;30.37;;
20621;SDS011;10470;42.670;23.354;2022-11-10T03:24:19;81.77;;;33.50;;
20621;SDS011;10470;42.670;23.354;2022-11-10T03:26:44;56.70;;;28.87;;
20621;SDS011;10470;42.670;23.354;2022-11-10T03:29:10;57.93;;;30.20;;
20621;SDS011;10470;42.670;23.354;2022-11-10T03:31:35;58.30;;;29.50;;
20621;SDS011;10470;42.670;23.354;2022-11-10T03:34:01;56.67;;;28.63;;
20621;SDS011;10470;42.670;23.354;2022-11-10T03:36:26;54.77;;;29.73;;
20621;SDS011;10470;42.670;23.354;2022-11-10T03:38:52;52.13;;;28.00;;
20621;SDS011;10470;42.670;23.354;2022-11-10T03:41:17;53.17;;;27.93;;
20621;SDS011;10470;42.670;23.354;2022-11-10T03:43:43;49.27;;;26.63;;
20621;SDS011;10470;42.670;23.354;2022-11-10T03:46:08;50.20;;;26.57;;
20621;SDS011;10470;42.670;23.354;2022-11-10T03:48:34;48.70;;;26.87;;
20621;SDS011;10470;42.670;23.354;2022-11-10T03:50:59;49.00;;;27.00;;
20621;SDS011;10470;42.670;23.354;2022-11-10T03:53:25;56.03;;;28.77;;
20621;SDS011;10470;42.670;23.354;2022-11-10T03:55:50;46.93;;;27.37;;
20621;SDS011;10470;42.670;23.354;2022-11-10T03:58:16;57.47;;;30.23;;
20621;SDS011;10470;42.670;23.354;2022-11-10T04:00:41;58.10;;;31.40;;
20621;SDS011;10470;42.670;23.354;2022-11-10T04:03:07;82.93;;;47.80;;
20621;SDS011;10470;42.670;23.354;2022-11-10T04:05:32;57.90;;;32.67;;
20621;SDS011;10470;42.670;23.354;2022-11-10T04:08:16;54.90;;;29.60;;
20621;SDS011;10470;42.670;23.354;2022-11-10T04:11:00;45.83;;;26.93;;
20621;SDS011;10470;42.670;23.354;2022-11-10T04:13:27;50.20;;;28.13;;
20621;SDS011;10470;42.670;23.354;2022-11-10T04:16:11;51.80;;;30.30;;
20621;SDS011;10470;42.670;23.354;2022-11-10T04:18:37;49.90;;;29.57;;
20621;SDS011;10470;42.670;23.354;2022-11-10T04:21:02;54.23;;;28.93;;
20621;SDS011;10470;42.670;23.354;2022-11-10T04:23:29;55.17;;;31.13;;
20621;SDS011;10470;42.670;23.354;2022-11-10T04:28:46;49.37;;;29.03;;
20621;SDS011;10470;42.670;23.354;2022-11-10T04:31:13;51.73;;;29.27;;
20621;SDS011;10470;42.670;23.354;2022-11-10T04:33:40;52.57;;;27.83;;
20621;SDS011;10470;42.670;23.354;2022-11-10T04:36:06;47.83;;;26.97;;
20621;SDS011;10470;42.670;23.354;2022-11-10T04:38:33;49.37;;;27.77;;
20621;SDS011;10470;42.670;23.354;2022-11-10T04:40:58;50.03;;;27.43;;
20621;SDS011;10470;42.670;23.354;2022-11-10T04:43:24;51.00;;;27.37;;
20621;SDS011;10470;42.670;23.354;2022-11-10T04:45:50;49.93;;;25.97;;
20621;SDS011;10470;42.670;23.354;2022-11-10T04:48:16;48.03;;;26.70;;
20621;SDS011;10470;42.670;23.354;2022-11-10T04:50:41;46.27;;;26.53;;
20621;SDS011;10470;42.670;23.354;2022-11-10T04:53:07;48.13;;;26.13;;
20621;SDS011;10470;42.670;23.354;2022-11-10T04:55:32;46.73;;;26.83;;
20621;SDS011;10470;42.670;23.354;2022-11-10T04:57:58;49.47;;;26.67;;
20621;SDS011;10470;42.670;23.354;2022-11-10T05:00:23;48.80;;;26.37;;
20621;SDS011;10470;42.670;23.354;2022-11-10T05:02:48;47.33;;;26.67;;
20621;SDS011;10470;42.670;23.354;2022-11-10T05:05:14;49.13;;;26.80;;
20621;SDS011;10470;42.670;23.354;2022-11-10T05:07:39;48.73;;;27.10;;
20621;SDS011;10470;42.670;23.354;2022-11-10T05:10:05;45.90;;;26.23;;
20621;SDS011;10470;42.670;23.354;2022-11-10T05:12:31;49.00;;;26.03;;
20621;SDS011;10470;42.670;23.354;2022-11-10T05:14:56;46.83;;;26.40;;
20621;SDS011;10470;42.670;23.354;2022-11-10T05:17:22;49.33;;;26.37;;
20621;SDS011;10470;42.670;23.354;2022-11-10T05:19:47;55.10;;;27.87;;
20621;SDS011;10470;42.670;23.354;2022-11-10T05:22:13;54.43;;;27.97;;
20621;SDS011;10470;42.670;23.354;2022-11-10T05:24:39;69.60;;;31.33;;
20621;SDS011;10470;42.670;23.354;2022-11-10T05:27:04;56.97;;;29.10;;
20621;SDS011;10470;42.670;23.354;2022-11-10T05:29:32;58.77;;;29.17;;
20621;SDS011;10470;42.670;23.354;2022-11-10T05:31:58;50.73;;;29.03;;
20621;SDS011;10470;42.670;23.354;2022-11-10T05:34:23;47.40;;;27.03;;
20621;SDS011;10470;42.670;23.354;2022-11-10T05:36:49;55.80;;;28.20;;
20621;SDS011;10470;42.670;23.354;2022-11-10T05:39:14;57.37;;;29.57;;
20621;SDS011;10470;42.670;23.354;2022-11-10T05:41:40;51.23;;;28.47;;
20621;SDS011;10470;42.670;23.354;2022-11-10T05:44:06;56.43;;;29.23;;
20621;SDS011;10470;42.670;23.354;2022-11-10T05:46:31;54.20;;;29.67;;
20621;SDS011;10470;42.670;23.354;2022-11-10T05:48:57;51.17;;;28.37;;
20621;SDS011;10470;42.670;23.354;2022-11-10T05:51:23;49.80;;;27.70;;
20621;SDS011;10470;42.670;23.354;2022-11-10T05:53:48;49.73;;;26.13;;
20621;SDS011;10470;42.670;23.354;2022-11-10T05:56:13;48.03;;;25.03;;
20621;SDS011;10470;42.670;23.354;2022-11-10T05:58:39;48.23;;;24.73;;
20621;SDS011;10470;42.670;23.354;2022-11-10T06:01:05;51.93;;;26.77;;
20621;SDS011;10470;42.670;23.354;2022-11-10T06:03:30;47.57;;;25.23;;
20621;SDS011;10470;42.670;23.354;2022-11-10T06:05:56;44.00;;;23.67;;
20621;SDS011;10470;42.670;23.354;2022-11-10T06:08:21;40.47;;;24.00;;
20621;SDS011;10470;42.670;23.354;2022-11-10T06:10:47;43.07;;;24.67;;
20621;SDS011;10470;42.670;23.354;2022-11-10T06:13:12;44.70;;;24.10;;
20621;SDS011;10470;42.670;23.354;2022-11-10T06:15:38;44.43;;;23.73;;
20621;SDS011;10470;42.670;23.354;2022-11-10T06:18:04;42.27;;;23.47;;
20621;SDS011;10470;42.670;23.354;2022-11-10T06:20:30;39.00;;;22.37;;
20621;SDS011;10470;42.670;23.354;2022-11-10T06:23:14;44.03;;;24.40;;
20621;SDS011;10470;42.670;23.354;2022-11-10T06:25:40;41.80;;;24.47;;
20621;SDS011;10470;42.670;23.354;2022-11-10T06:28:07;42.63;;;23.47;;
20621;SDS011;10470;42.670;23.354;2022-11-10T06:30:34;44.43;;;23.10;;
20621;SDS011;10470;42.670;23.354;2022-11-10T06:33:01;40.17;;;23.00;;
20621;SDS011;10470;42.670;23.354;2022-11-10T06:35:26;41.63;;;23.53;;
20621;SDS011;10470;42.670;23.354;2022-11-10T06:38:02;40.53;;;24.07;;
20621;SDS011;10470;42.670;23.354;2022-11-10T06:40:33;46.87;;;24.17;;
20621;SDS011;10470;42.670;23.354;2022-11-10T06:42:59;53.40;;;27.03;;
20621;SDS011;10470;42.670;23.354;2022-11-10T06:45:26;47.23;;;26.03;;
20621;SDS011;10470;42.670;23.354;2022-11-10T06:48:01;47.23;;;26.57;;
20621;SDS011;10470;42.670;23.354;2022-11-10T06:50:28;47.57;;;25.73;;
20621;SDS011;10470;42.670;23.354;2022-11-10T06:52:54;54.27;;;27.30;;
20621;SDS011;10470;42.670;23.354;2022-11-10T06:55:21;60.73;;;29.40;;
20621;SDS011;10470;42.670;23.354;2022-11-10T06:57:47;58.07;;;30.07;;
20621;SDS011;10470;42.670;23.354;2022-11-10T07:00:16;75.00;;;34.90;;
20621;SDS011;10470;42.670;23.354;2022-11-10T07:03:01;77.47;;;36.47;;
20621;SDS011;10470;42.670;23.354;2022-11-10T07:05:31;82.57;;;36.13;;
20621;SDS011;10470;42.670;23.354;2022-11-10T07:08:17;78.10;;;36.23;;
20621;SDS011;10470;42.670;23.354;2022-11-10T07:10:43;79.67;;;35.97;;
20621;SDS011;10470;42.670;23.354;2022-11-10T07:13:14;73.50;;;36.80;;
20621;SDS011;10470;42.670;23.354;2022-11-10T07:15:40;76.90;;;35.93;;
20621;SDS011;10470;42.670;23.354;2022-11-10T07:18:06;74.10;;;36.60;;
20621;SDS011;10470;42.670;23.354;2022-11-10T07:20:31;76.00;;;36.47;;
20621;SDS011;10470;42.670;23.354;2022-11-10T07:23:01;74.07;;;36.40;;
20621;SDS011;10470;42.670;23.354;2022-11-10T07:25:32;81.23;;;38.53;;
20621;SDS011;10470;42.670;23.354;2022-11-10T07:28:03;82.10;;;38.83;;
20621;SDS011;10470;42.670;23.354;2022-11-10T07:30:31;79.77;;;38.27;;
20621;SDS011;10470;42.670;23.354;2022-11-10T07:33:02;75.30;;;37.60;;
20621;SDS011;10470;42.670;23.354;2022-11-10T07:35:29;78.17;;;39.57;;
20621;SDS011;10470;42.670;23.354;2022-11-10T07:37:56;81.90;;;39.47;;
20621;SDS011;10470;42.670;23.354;2022-11-10T07:40:22;79.70;;;39.50;;
20621;SDS011;10470;42.670;23.354;2022-11-10T07:42:49;78.13;;;38.37;;
20621;SDS011;10470;42.670;23.354;2022-11-10T07:45:14;87.70;;;39.53;;
20621;SDS011;10470;42.670;23.354;2022-11-10T07:47:41;81.30;;;39.23;;
20621;SDS011;10470;42.670;23.354;2022-11-10T07:50:06;77.33;;;38.80;;
20621;SDS011;10470;42.670;23.354;2022-11-10T07:52:32;74.03;;;38.67;;
20621;SDS011;10470;42.670;23.354;2022-11-10T07:54:58;81.53;;;40.70;;
20621;SDS011;10470;42.670;23.354;2022-11-10T07:57:24;85.77;;;42.20;;
20621;SDS011;10470;42.670;23.354;2022-11-10T07:59:49;80.23;;;42.43;;
20621;SDS011;10470;42.670;23.354;2022-11-10T08:02:15;91.07;;;42.10;;
20621;SDS011;10470;42.670;23.354;2022-11-10T08:04:40;87.90;;;42.13;;
20621;SDS011;10470;42.670;23.354;2022-11-10T08:07:06;80.10;;;41.40;;
20621;SDS011;10470;42.670;23.354;2022-11-10T08:09:31;79.13;;;41.23;;
20621;SDS011;10470;42.670;23.354;2022-11-10T08:11:57;82.30;;;42.07;;
20621;SDS011;10470;42.670;23.354;2022-11-10T08:14:22;74.97;;;41.13;;
20621;SDS011;10470;42.670;23.354;2022-11-10T08:16:48;76.87;;;40.17;;
20621;SDS011;10470;42.670;23.354;2022-11-10T08:19:15;85.27;;;41.53;;
20621;SDS011;10470;42.670;23.354;2022-11-10T08:21:40;75.63;;;41.00;;
20621;SDS011;10470;42.670;23.354;2022-11-10T08:24:06;78.07;;;41.23;;
20621;SDS011;10470;42.670;23.354;2022-11-10T08:26:31;81.87;;;43.87;;
20621;SDS011;10470;42.670;23.354;2022-11-10T08:28:57;83.43;;;44.67;;
20621;SDS011;10470;42.670;23.354;2022-11-10T08:31:22;88.07;;;45.97;;
20621;SDS011;10470;42.670;23.354;2022-11-10T08:33:48;78.83;;;41.87;;
20621;SDS011;10470;42.670;23.354;2022-11-10T08:36:14;78.77;;;42.10;;
20621;SDS011;10470;42.670;23.354;2022-11-10T08:38:39;77.23;;;41.43;;
20621;SDS011;10470;42.670;23.354;2022-11-10T08:41:05;78.37;;;41.10;;
20621;SDS011;10470;42.670;23.354;2022-11-10T08:43:30;76.70;;;40.70;;
20621;SDS011;10470;42.670;23.354;2022-11-10T08:45:56;76.70;;;41.23;;
20621;SDS011;10470;42.670;23.354;2022-11-10T08:48:22;82.67;;;42.90;;
20621;SDS011;10470;42.670;23.354;2022-11-10T08:50:48;82.93;;;44.33;;
20621;SDS011;10470;42.670;23.354;2022-11-10T08:53:16;80.67;;;43.80;;
20621;SDS011;10470;42.670;23.354;2022-11-10T08:55:46;88.17;;;45.00;;
20621;SDS011;10470;42.670;23.354;2022-11-10T08:58:16;79.57;;;42.13;;
20621;SDS011;10470;42.670;23.354;2022-11-10T09:00:43;87.57;;;45.67;;
20621;SDS011;10470;42.670;23.354;2022-11-10T09:03:10;84.47;;;45.13;;
20621;SDS011;10470;42.670;23.354;2022-11-10T09:05:43;90.40;;;44.53;;
20621;SDS011;10470;42.670;23.354;2022-11-10T09:08:13;89.97;;;45.60;;
20621;SDS011;10470;42.670;23.354;2022-11-10T09:10:43;90.20;;;45.30;;
20621;SDS011;10470;42.670;23.354;2022-11-10T09:13:10;95.50;;;45.77;;
20621;SDS011;10470;42.670;23.354;2022-11-10T09:15:41;91.03;;;47.40;;
20621;SDS011;10470;42.670;23.354;2022-11-10T09:18:08;92.17;;;45.57;;
20621;SDS011;10470;42.670;23.354;2022-11-10T09:20:35;98.57;;;47.67;;
20621;SDS011;10470;42.670;23.354;2022-11-10T09:23:15;89.97;;;46.90;;
20621;SDS011;10470;42.670;23.354;2022-11-10T09:25:47;90.13;;;46.50;;
20621;SDS011;10470;42.670;23.354;2022-11-10T09:28:14;97.70;;;48.37;;
20621;SDS011;10470;42.670;23.354;2022-11-10T09:30:41;95.83;;;49.70;;
20621;SDS011;10470;42.670;23.354;2022-11-10T09:33:11;88.63;;;47.13;;
20621;SDS011;10470;42.670;23.354;2022-11-10T09:35:37;93.30;;;49.60;;
20621;SDS011;10470;42.670;23.354;2022-11-10T09:38:02;89.83;;;50.30;;
20621;SDS011;10470;42.670;23.354;2022-11-10T09:43:15;86.90;;;49.10;;
20621;SDS011;10470;42.670;23.354;2022-11-10T09:45:45;83.13;;;46.07;;
20621;SDS011;10470;42.670;23.354;2022-11-10T09:48:18;86.80;;;47.60;;
20621;SDS011;10470;42.670;23.354;2022-11-10T10:05:31;83.30;;;45.60;;
20621;SDS011;10470;42.670;23.354;2022-11-10T10:08:07;75.93;;;43.10;;
20621;SDS011;10470;42.670;23.354;2022-11-10T10:11:35;80.23;;;44.23;;
20621;SDS011;10470;42.670;23.354;2022-11-10T10:25:42;74.03;;;42.23;;
20621;SDS011;10470;42.670;23.354;2022-11-10T10:34:03;70.17;;;40.43;;
20621;SDS011;10470;42.670;23.354;2022-11-10T10:36:47;68.77;;;38.93;;
20621;SDS011;10470;42.670;23.354;2022-11-10T18:10:40;57.00;;;27.17;;
20621;SDS011;10470;42.670;23.354;2022-11-10T18:13:16;53.63;;;26.83;;
20621;SDS011;10470;42.670;23.354;2022-11-10T18:15:45;49.63;;;26.93;;
20621;SDS011;10470;42.670;23.354;2022-11-10T18:18:12;53.57;;;27.93;;
20621;SDS011;10470;42.670;23.354;2022-11-10T18:20:39;52.67;;;28.77;;
20621;SDS011;10470;42.670;23.354;2022-11-10T18:23:05;56.53;;;28.80;;
20621;SDS011;10470;42.670;23.354;2022-11-10T18:25:44;59.53;;;29.17;;
20621;SDS011;10470;42.670;23.354;2022-11-10T18:31:31;58.00;;;30.17;;
20621;SDS011;10470;42.670;23.354;2022-11-10T18:33:57;62.03;;;31.03;;
20621;SDS011;10470;42.670;23.354;2022-11-10T18:38:58;50.93;;;29.13;;
20621;SDS011;10470;42.670;23.354;2022-11-10T18:41:23;60.80;;;31.73;;
20621;SDS011;10470;42.670;23.354;2022-11-10T18:44:07;52.20;;;30.97;;
20621;SDS011;10470;42.670;23.354;2022-11-10T18:46:33;57.43;;;31.83;;
20621;SDS011;10470;42.670;23.354;2022-11-10T18:48:58;60.17;;;30.30;;
20621;SDS011;10470;42.670;23.354;2022-11-10T18:51:24;60.47;;;29.57;;
20621;SDS011;10470;42.670;23.354;2022-11-10T18:53:50;60.73;;;31.17;;
20621;SDS011;10470;42.670;23.354;2022-11-10T18:56:17;62.43;;;30.80;;
20621;SDS011;10470;42.670;23.354;2022-11-10T18:58:42;64.43;;;31.30;;
20621;SDS011;10470;42.670;23.354;2022-11-10T19:01:08;61.03;;;30.37;;
20621;SDS011;10470;42.670;23.354;2022-11-10T19:03:35;54.43;;;30.93;;
20621;SDS011;10470;42.670;23.354;2022-11-10T19:06:01;59.87;;;30.17;;
20621;SDS011;10470;42.670;23.354;2022-11-10T19:08:27;54.23;;;29.67;;
20621;SDS011;10470;42.670;23.354;2022-11-10T19:10:53;57.97;;;31.10;;
20621;SDS011;10470;42.670;23.354;2022-11-10T19:13:20;54.00;;;29.43;;
20621;SDS011;10470;42.670;23.354;2022-11-10T19:15:46;61.50;;;30.33;;
20621;SDS011;10470;42.670;23.354;2022-11-10T19:18:11;59.63;;;31.43;;
20621;SDS011;10470;42.670;23.354;2022-11-10T19:20:38;64.67;;;32.60;;
20621;SDS011;10470;42.670;23.354;2022-11-10T19:23:03;62.33;;;32.30;;
20621;SDS011;10470;42.670;23.354;2022-11-10T19:25:29;64.80;;;32.40;;
20621;SDS011;10470;42.670;23.354;2022-11-10T19:27:56;64.73;;;32.93;;
20621;SDS011;10470;42.670;23.354;2022-11-10T19:30:25;60.50;;;32.80;;
20621;SDS011;10470;42.670;23.354;2022-11-10T19:32:53;56.87;;;32.53;;
20621;SDS011;10470;42.670;23.354;2022-11-10T19:35:24;60.90;;;32.23;;
20621;SDS011;10470;42.670;23.354;2022-11-10T19:37:51;62.23;;;32.50;;
20621;SDS011;10470;42.670;23.354;2022-11-10T19:40:20;54.37;;;31.67;;
20621;SDS011;10470;42.670;23.354;2022-11-10T19:42:48;63.80;;;33.77;;
20621;SDS011;10470;42.670;23.354;2022-11-10T19:45:15;65.60;;;34.33;;
20621;SDS011;10470;42.670;23.354;2022-11-10T19:47:43;65.47;;;35.87;;
20621;SDS011;10470;42.670;23.354;2022-11-10T19:50:11;73.87;;;36.10;;
20621;SDS011;10470;42.670;23.354;2022-11-10T19:52:39;64.13;;;36.20;;
20621;SDS011;10470;42.670;23.354;2022-11-10T19:55:07;68.80;;;36.53;;
20621;SDS011;10470;42.670;23.354;2022-11-10T19:57:34;70.33;;;35.07;;
20621;SDS011;10470;42.670;23.354;2022-11-10T20:00:01;61.90;;;34.30;;
20621;SDS011;10470;42.670;23.354;2022-11-10T20:02:32;70.00;;;38.00;;
20621;SDS011;10470;42.670;23.354;2022-11-10T20:05:02;71.47;;;37.03;;
20621;SDS011;10470;42.670;23.354;2022-11-10T20:07:43;67.73;;;35.10;;
20621;SDS011;10470;42.670;23.354;2022-11-10T20:10:30;62.03;;;34.63;;
20621;SDS011;10470;42.670;23.354;2022-11-10T20:13:00;67.07;;;35.17;;
20621;SDS011;10470;42.670;23.354;2022-11-10T20:15:31;66.67;;;35.67;;
20621;SDS011;10470;42.670;23.354;2022-11-10T20:17:59;65.50;;;35.53;;
20621;SDS011;10470;42.670;23.354;2022-11-10T20:20:29;61.77;;;33.40;;
20621;SDS011;10470;42.670;23.354;2022-11-10T20:23:01;66.80;;;35.03;;
20621;SDS011;10470;42.670;23.354;2022-11-10T20:25:35;65.47;;;34.63;;
20621;SDS011;10470;42.670;23.354;2022-11-10T20:28:03;65.73;;;34.53;;
20621;SDS011;10470;42.670;23.354;2022-11-10T20:30:36;63.23;;;33.63;;
20621;SDS011;10470;42.670;23.354;2022-11-10T20:33:07;80.70;;;44.63;;
20621;SDS011;10470;42.670;23.354;2022-11-10T20:35:38;61.80;;;33.53;;
20621;SDS011;10470;42.670;23.354;2022-11-10T20:38:09;72.30;;;34.50;;
20621;SDS011;10470;42.670;23.354;2022-11-10T20:40:37;62.90;;;34.37;;
20621;SDS011;10470;42.670;23.354;2022-11-10T20:43:07;67.33;;;35.00;;
20621;SDS011;10470;42.670;23.354;2022-11-10T20:45:36;64.00;;;35.83;;
20621;SDS011;10470;42.670;23.354;2022-11-10T20:48:07;62.30;;;33.73;;
20621;SDS011;10470;42.670;23.354;2022-11-10T20:50:40;64.60;;;35.57;;
20621;SDS011;10470;42.670;23.354;2022-11-10T20:53:11;68.13;;;35.33;;
20621;SDS011;10470;42.670;23.354;2022-11-10T20:55:41;64.93;;;36.07;;
20621;SDS011;10470;42.670;23.354;2022-11-10T20:58:08;65.60;;;35.73;;
20621;SDS011;10470;42.670;23.354;2022-11-10T21:00:42;67.80;;;36.03;;
20621;SDS011;10470;42.670;23.354;2022-11-10T21:03:13;67.57;;;36.47;;
20621;SDS011;10470;42.670;23.354;2022-11-10T21:05:42;73.30;;;36.00;;
20621;SDS011;10470;42.670;23.354;2022-11-10T21:08:11;68.87;;;36.50;;
20621;SDS011;10470;42.670;23.354;2022-11-10T21:10:40;72.07;;;37.17;;
20621;SDS011;10470;42.670;23.354;2022-11-10T21:13:15;73.90;;;39.57;;
20621;SDS011;10470;42.670;23.354;2022-11-10T21:15:46;67.57;;;37.37;;
20621;SDS011;10470;42.670;23.354;2022-11-10T21:18:18;71.53;;;39.23;;
20621;SDS011;10470;42.670;23.354;2022-11-10T21:20:50;66.80;;;37.63;;
20621;SDS011;10470;42.670;23.354;2022-11-10T21:23:20;76.10;;;37.73;;
20621;SDS011;10470;42.670;23.354;2022-11-10T21:25:55;77.67;;;39.47;;
20621;SDS011;10470;42.670;23.354;2022-11-10T21:28:26;75.33;;;37.07;;
20621;SDS011;10470;42.670;23.354;2022-11-10T21:31:03;76.97;;;39.10;;
20621;SDS011;10470;42.670;23.354;2022-11-10T21:33:30;77.20;;;39.50;;
20621;SDS011;10470;42.670;23.354;2022-11-10T21:36:04;74.43;;;37.63;;
20621;SDS011;10470;42.670;23.354;2022-11-10T21:38:34;70.97;;;38.53;;
20621;SDS011;10470;42.670;23.354;2022-11-10T21:41:06;76.23;;;40.10;;
20621;SDS011;10470;42.670;23.354;2022-11-10T21:43:38;79.33;;;38.70;;
20621;SDS011;10470;42.670;23.354;2022-11-10T21:46:07;76.00;;;39.33;;
20621;SDS011;10470;42.670;23.354;2022-11-10T21:48:35;74.47;;;38.93;;
20621;SDS011;10470;42.670;23.354;2022-11-10T21:51:05;78.47;;;38.97;;
20621;SDS011;10470;42.670;23.354;2022-11-10T21:53:35;81.10;;;40.30;;
20621;SDS011;10470;42.670;23.354;2022-11-10T21:56:07;66.73;;;37.20;;
20621;SDS011;10470;42.670;23.354;2022-11-10T21:58:38;74.03;;;38.47;;
20621;SDS011;10470;42.670;23.354;2022-11-10T22:01:08;75.17;;;38.33;;
20621;SDS011;10470;42.670;23.354;2022-11-10T22:03:38;75.43;;;39.63;;
20621;SDS011;10470;42.670;23.354;2022-11-10T22:06:11;80.40;;;40.17;;
20621;SDS011;10470;42.670;23.354;2022-11-10T22:08:42;71.00;;;38.63;;
20621;SDS011;10470;42.670;23.354;2022-11-10T22:11:14;71.80;;;38.83;;
20621;SDS011;10470;42.670;23.354;2022-11-10T22:14:13;68.03;;;37.27;;
20621;SDS011;10470;42.670;23.354;2022-11-10T22:17:01;66.30;;;35.83;;
20621;SDS011;10470;42.670;23.354;2022-11-10T22:19:49;63.87;;;35.67;;
20621;SDS011;10470;42.670;23.354;2022-11-10T22:22:17;67.53;;;36.27;;
20621;SDS011;10470;42.670;23.354;2022-11-10T22:24:46;71.77;;;36.60;;
20621;SDS011;10470;42.670;23.354;2022-11-10T22:27:14;62.97;;;35.40;;
20621;SDS011;10470;42.670;23.354;2022-11-10T22:29:44;73.73;;;36.67;;
20621;SDS011;10470;42.670;23.354;2022-11-10T22:32:12;69.47;;;35.20;;
20621;SDS011;10470;42.670;23.354;2022-11-10T22:34:42;70.67;;;35.70;;